Home > Products > Valid Products > TAF

000
FTUS46 KSEW 301700
TAFHQM
TAF
KHQM 301720Z 3018/0118 28008KT P6SM SCT040
     FM010800 VRB03KT P6SM BKN020 BKN040
     FM011700 28008KT P6SM SCT025 BKN050=



000
FTUS46 KSEW 301700
TAFSEA
TAF
KSEA 301720Z 3018/0124 21007KT P6SM VCSH SCT020 BKN040
      TEMPO 3018/3021 BKN020 BKN040
     FM010000 VRB04KT P6SM VCSH SCT020 BKN040
     FM010800 VRB03KT P6SM BKN020 BKN040
     FM011700 21006KT P6SM SCT025 BKN050=



000
FTUS46 KSEW 301700
TAFCLM
TAF
KCLM 301720Z 3018/0118 26012KT P6SM SCT030 SCT070
     FM010000 28008KT P6SM VCSH SCT020 BKN040
     FM010800 VRB03KT P6SM BKN020 BKN040
     FM011700 27007KT P6SM SCT025 BKN050=



000
FTUS46 KSEW 301700
TAFBLI
TAF
KBLI 301720Z 3018/0118 18007KT P6SM SCT040 SCT070
     FM010000 VRB04KT P6SM VCSH SCT020 BKN040
     FM010800 18006KT P6SM BKN020 BKN040
     FM011700 21006KT P6SM SCT025 BKN050=



000
FTUS46 KSEW 301700
TAFOLM
TAF
KOLM 301720Z 3018/0118 23008KT P6SM SCT040
     FM010400 30006KT P6SM VCSH SCT020 BKN040
     FM010800 VRB03KT P6SM BKN010 BKN040
     FM011700 27007KT P6SM SCT025 BKN050=



000
FTUS46 KSEW 301700
TAFPAE
TAF
KPAE 301720Z 3018/0118 21007KT P6SM VCSH SCT020 BKN040
      TEMPO 3018/3021 BKN020 BKN040
     FM010000 27007KT P6SM VCSH SCT020 BKN040
     FM010800 VRB04KT P6SM BKN020 BKN040
     FM011700 21006KT P6SM SCT025 BKN050=



000
FTUS46 KSEW 301700
TAFBFI
TAF
KBFI 301720Z 3018/0118 17007KT P6SM VCSH SCT025 BKN050
      TEMPO 3018/3021 BKN025 BKN050
     FM010000 VRB04KT P6SM VCSH SCT025 BKN040
     FM010800 VRB03KT P6SM BKN025 BKN040
     FM011700 21006KT P6SM SCT025 BKN050=



000
FTUS46 KSEW 301400 AAA
TAFPAE
TAF AMD
KPAE 301431Z 3015/0112 18008KT P6SM VCSH SCT020 BKN040
     FM302200 28006KT P6SM -SHRA BKN025 OVC050
     FM010000 VRB03KT P6SM VCSH SCT020 BKN040
     FM010800 VRB03KT P6SM BKN020 BKN040=



000
FTUS46 KSEW 301100 RRA
TAFOLM
TAF
KOLM 301151Z 3012/0112 20006KT P6SM SCT018 SCT050
     FM301400 20006KT P6SM VCSH BKN018 BKN050
     FM301900 24009KT P6SM SCT035 SCT050 PROB30 3021/0102 -SHRA
      BKN035 OVC050
     FM010200 27004KT P6SM SKC
     FM010600 VRB03KT 5SM BR SKC
     FM011000 00000KT 1SM BR VV003=



000
FTUS46 KSEW 301100 RRA
TAFBLI
TAF
KBLI 301151Z 3012/0112 17007KT P6SM VCSH SCT035 OVC050
      TEMPO 3012/3014 -SHRA BKN035 OVC050
     FM301400 17011KT P6SM BKN030 BKN050
     FM302000 19009KT P6SM SCT035 BKN050
     FM010000 17005KT P6SM SCT050
     FM010900 15005KT P6SM BKN022=



000
FTUS46 KSEW 301100 RRA
TAFPAE
TAF
KPAE 301151Z 3012/0112 19006KT P6SM VCSH SCT005 OVC022
      TEMPO 3012/3014 -SHRA BKN005 OVC022
     FM301400 19008KT 6SM -SHRA BR SCT005 OVC008
     FM301800 19008KT P6SM -SHRA BKN015 OVC030
     FM302000 28006KT P6SM -SHRA BKN025 OVC050
     FM010000 VRB03KT P6SM SCT035 BKN050
     FM010600 VRB03KT P6SM OVC022=



000
FTUS46 KSEW 301100 RRA
TAFCLM
TAF
KCLM 301151Z 3012/0112 25008KT P6SM VCSH SCT022 SCT050
      TEMPO 3012/3016 -SHRA BKN022 BKN050
     FM301800 31012KT P6SM VCSH SCT035 SCT050
     FM010100 28007KT P6SM SKC
     FM010900 25005KT P6SM VCFG FEW020=



000
FTUS46 KSEW 301100 RRA
TAFHQM
TAF
KHQM 301151Z 3012/0112 28006KT P6SM VCSH SCT012 SCT050
      TEMPO 3012/3016 BKN012 BKN050
     FM301800 25008KT P6SM VCSH SCT025 BKN050
     FM302000 25015KT P6SM SCT035 SCT050
     FM010100 29006KT P6SM FEW050
     FM010900 VRB03KT 5SM BR SCT005=



000
FTUS46 KSEW 301100 RRA
TAFBFI
TAF
KBFI 301151Z 3012/0112 15005KT P6SM SCT015 BKN090
      TEMPO 3012/3014 BKN015 BKN090
     FM301400 17005KT P6SM OVC015
     FM302000 20006KT P6SM BKN035 OVC050 PROB30 3021/3024 -SHRA
     FM010000 VRB05KT P6SM SCT035 BKN050 PROB30 0100/0106 -SHRA
     FM010600 VRB03KT P6SM BKN030 BKN050=



000
FTUS46 KSEW 301100 RRA
TAFSEA
TAF
KSEA 301151Z 3012/0118 19005KT P6SM OVC010
     FM301800 19009KT P6SM BKN020 OVC035
     FM302000 23009KT P6SM VCSH BKN030 OVC050 PROB30 3021/3024 -SHRA
     FM010000 VRB05KT P6SM SCT030 BKN050 PROB30 0100/0106 -SHRA
     FM010600 19005KT P6SM BKN025 BKN050
     FM011200 17005KT P6SM OVC010=



000
FTUS46 KSEW 300900 AAB
TAFPAE
TAF AMD
KPAE 300942Z 3010/0106 17007KT P6SM SCT025 BKN040 BKN070
      TEMPO 3010/3012 BKN025 BKN040 OVC070
     FM301200 19007KT P6SM OVC020
     FM302000 28006KT P6SM BKN028 OVC050 PROB30 3020/3024 -SHRA
     FM010000 VRB03KT P6SM SCT035 SCT050=



000
FTUS46 KSEW 300900 AAA
TAFBLI
TAF AMD
KBLI 300906Z 3009/0106 17007KT P6SM FEW020 BKN090
     FM301200 17009KT P6SM OVC020
     FM302000 19009KT P6SM SCT028 BKN050 PROB30 3020/3024 -SHRA
     FM010000 17005KT P6SM SCT050=



000
FTUS46 KSEW 300800 AAA
TAFHQM
TAF AMD
KHQM 300847Z 3009/0106 31005KT P6SM VCSH SCT018 BKN040
      TEMPO 3009/3012 4SM -SHRA BR BKN018 BKN040
     FM301200 28006KT P6SM VCSH BKN010 BKN035
     FM301800 25008KT P6SM SCT015 BKN050
     FM302000 25015KT P6SM SCT050
     FM010100 29007KT P6SM FEW050=



000
FTUS46 KSEW 300800 AAA
TAFSEA
TAF AMD
KSEA 300810Z 3008/0112 VRB05KT P6SM VCSH FEW015 SCT030 BKN070
      TEMPO 3008/3012 -SHRA FEW015 BKN030 BKN070
     FM301200 19007KT 5SM -SHRA BR BKN007 OVC015
     FM301500 19009KT P6SM -SHRA SCT007 BKN015 OVC030
     FM302000 23009KT P6SM BKN028 OVC050 PROB30 3020/0102 -SHRA
     FM010200 35005KT P6SM BKN035 BKN050 PROB30 0102/0106 -SHRA
     FM010600 19005KT P6SM BKN025 BKN050=



000
FTUS46 KSEW 300800 AAA
TAFBFI
TAF AMD
KBFI 300809Z 3008/0106 VRB05KT P6SM VCSH SCT022 BKN070
      TEMPO 3008/3012 BKN022 BKN070
     FM301200 17005KT 4SM -SHRA BR BKN007 OVC015
     FM301500 17005KT P6SM VCSH BKN020 OVC035
     FM302000 20006KT P6SM BKN035 OVC050 PROB30 3020/0102 -SHRA
     FM010200 VRB03KT P6SM SCT035 BKN050 PROB30 0102/0106 -SHRA=



000
FTUS46 KSEW 300800 AAA
TAFOLM
TAF AMD
KOLM 300808Z 3008/0106 20008KT P6SM FEW018
     FM301200 20006KT P6SM SCT010
      TEMPO 3012/3014 BKN010
     FM301400 20006KT P6SM BKN010
     FM301900 24009KT P6SM SCT050 PROB30 3020/0102 -SHRA OVC050
     FM010200 27004KT P6SM SKC=



000
FTUS46 KSEW 300800 AAA
TAFPAE
TAF AMD
KPAE 300808Z 3008/0106 17007KT P6SM BKN025 BKN035 BKN070
     FM301200 19007KT P6SM OVC020
     FM302000 28006KT P6SM BKN028 OVC050 PROB30 3020/3024 -SHRA
     FM010000 VRB03KT P6SM SCT035 SCT050=



000
FTUS46 KSEW 300500 RRA
TAFHQM
TAF
KHQM 300544Z 3006/0106 31005KT P6SM VCSH SCT025 BKN070
      TEMPO 3006/3009 -SHRA BKN025 OVC070
     FM300900 31005KT P6SM VCSH SCT018 BKN040
     FM301200 28006KT P6SM VCSH BKN010 BKN035
     FM301800 25008KT P6SM SCT015 BKN050
     FM302000 25015KT P6SM SCT050
     FM010100 29007KT P6SM FEW050=



000
FTUS46 KSEW 300500 RRA
TAFOLM
TAF
KOLM 300544Z 3006/0106 22012KT P6SM SKC
     FM300900 20008KT P6SM FEW018
     FM301200 20006KT P6SM SCT010
      TEMPO 3012/3014 BKN010
     FM301400 20006KT P6SM BKN010
     FM301900 24009KT P6SM SCT050 PROB30 3020/0102 -SHRA OVC050
     FM010200 27004KT P6SM SKC=



000
FTUS46 KSEW 300500 RRA
TAFCLM
TAF
KCLM 300544Z 3006/0106 28012KT P6SM FEW030
     FM301200 28008KT P6SM SCT022
      TEMPO 3014/3018 BKN022
     FM301800 31012KT P6SM FEW035 SCT050
     FM010100 28007KT P6SM SKC=



000
FTUS46 KSEW 300500 RRA
TAFSEA
TAF
KSEA 300544Z 3006/0112 19009KT P6SM VCSH SCT015 BKN045
      TEMPO 3007/3009 -SHRA BKN015 OVC045
     FM300900 19007KT 5SM -SHRA BR BKN007 OVC015
     FM301500 19009KT P6SM -SHRA SCT007 BKN015 OVC030
     FM302000 23009KT P6SM BKN028 OVC050 PROB30 3020/0102 -SHRA
     FM010200 35005KT P6SM BKN035 BKN050 PROB30 0102/0106 -SHRA
     FM010600 19005KT P6SM BKN025 BKN050=



000
FTUS46 KSEW 300500 RRA
TAFBFI
TAF
KBFI 300544Z 3006/0106 VRB05KT P6SM VCSH OVC020
      TEMPO 3006/3009 -SHRA
     FM300900 17005KT 4SM -SHRA BR BKN007 OVC015
     FM301500 17005KT P6SM VCSH BKN020 OVC035
     FM302000 20006KT P6SM BKN035 OVC050 PROB30 3020/0102 -SHRA
     FM010200 VRB03KT P6SM SCT035 BKN050 PROB30 0102/0106 -SHRA=



000
FTUS46 KSEW 300500 RRA
TAFBLI
TAF
KBLI 300544Z 3006/0106 17007KT P6SM BKN035 BKN070
     FM300900 17007KT P6SM OVC028
     FM301200 17009KT P6SM OVC020
     FM302000 19009KT P6SM SCT028 BKN050 PROB30 3020/3024 -SHRA
     FM010000 17005KT P6SM SCT050=



000
FTUS46 KSEW 300500 RRA
TAFPAE
TAF
KPAE 300544Z 3006/0106 VRB05KT P6SM VCSH SCT035 BKN070
      TEMPO 3006/3008 -SHRA
     FM300900 VRB05KT P6SM SCT025 SCT070
     FM301200 19007KT P6SM OVC020 PROB30 3015/3020 -SHRA
     FM302000 28006KT P6SM BKN028 OVC050 PROB30 3020/3024 -SHRA
     FM010000 VRB03KT P6SM SCT035 SCT050=



000
FTUS46 KSEW 300400 AAD
TAFSEA
TAF AMD
KSEA 300428Z 3004/0106 20006KT P6SM VCSH OVC022
     FM300700 18006KT P6SM VCSH BKN020 OVC040
     FM301700 VRB04KT P6SM VCSH SCT025 BKN040=



000
FTUS46 KSEW 300400 AAB
TAFHQM
TAF AMD
KHQM 300427Z 3004/3024 VRB04KT P6SM VCSH SCT020
      TEMPO 3004/3006 -SHRA BKN020
     FM300600 VRB04KT P6SM BKN020
     FM301700 30006KT P6SM VCSH SCT025 BKN040=



000
FTUS46 KSEW 300400 AAC
TAFPAE
TAF AMD
KPAE 300426Z 3004/3024 VRB05KT P6SM -SHRA SCT020 OVC040
      TEMPO 3004/3006 -SHRA BKN020 OVC040
     FM300600 VRB05KT 6SM -SHRA BR BKN015 OVC030
     FM301700 VRB04KT P6SM VCSH SCT020 BKN040=



000
FTUS46 KSEW 300200 AAC
TAFSEA
TAF AMD
KSEA 300256Z 3003/0106 22007KT P6SM VCSH FEW006 SCT015 OVC035
      TEMPO 3003/3005 -SHRA FEW006 BKN015 OVC035
     FM300700 18006KT P6SM VCSH BKN020 OVC040
     FM301700 VRB04KT P6SM VCSH SCT025 BKN040=



000
FTUS46 KSEW 300200 AAB
TAFBFI
TAF AMD
KBFI 300248Z 3003/3024 VRB05KT P6SM VCSH OVC022
      TEMPO 3003/3006 -SHRA
     FM300600 18006KT P6SM VCSH BKN020 OVC040
     FM301700 VRB04KT P6SM VCSH SCT025 BKN040=



000
FTUS46 KSEW 300100 AAA
TAFHQM
TAF AMD
KHQM 300143Z 3002/3024 29010KT P6SM SCT025
     FM300400 32006KT P6SM BKN025
     FM301700 30006KT P6SM VCSH SCT025 BKN040=



000
FTUS46 KSEW 300100 AAA
TAFCLM
TAF AMD
KCLM 300142Z 3002/3024 27014KT P6SM SCT050
     FM300700 27007KT P6SM BKN020 OVC040
     FM301700 27007KT P6SM SCT025 BKN040=



000
FTUS46 KSEW 300100 AAA
TAFOLM
TAF AMD
KOLM 300141Z 3002/3024 22010KT P6SM FEW008 SCT020
     FM300700 18006KT P6SM VCSH BKN020 OVC040
     FM301700 22006KT P6SM VCSH SCT025 BKN040=



000
FTUS46 KSEW 300100 AAB
TAFPAE
TAF AMD
KPAE 300140Z 3002/3024 31005KT P6SM FEW004 SCT022 OVC035
      TEMPO 3002/3004 -SHRA FEW004 BKN022 OVC035
     FM300400 30006KT P6SM -SHRA BKN015 OVC030
     FM301700 VRB04KT P6SM VCSH SCT020 BKN040=



000
FTUS46 KSEW 300100 AAB
TAFSEA
TAF AMD
KSEA 300101Z 3001/0106 20008KT 6SM -DZ BR SCT006 OVC015
      TEMPO 3001/3004 2SM -RA BR OVC006
     FM300700 18006KT P6SM VCSH BKN020 OVC040
     FM301700 VRB04KT P6SM VCSH SCT025 BKN040=



000
FTUS46 KSEW 300100 AAA
TAFBFI
TAF AMD
KBFI 300100Z 3001/3024 19005KT 3SM -RA BR SCT006 OVC013
     FM300400 VRB03KT 5SM -RA BR SCT009 OVC015
     FM300700 18006KT P6SM VCSH BKN020 OVC040
     FM301700 VRB04KT P6SM VCSH SCT025 BKN040=



000
FTUS46 KSEW 300100 AAA
TAFBLI
TAF AMD
KBLI 300100Z 3001/3024 16008KT P6SM SCT016 BKN070 OVC090
     FM300700 18006KT P6SM VCSH BKN020 OVC040
     FM301700 VRB04KT P6SM VCSH SCT025 BKN040=



000
FTUS46 KSEW 300000 AAA
TAFSEA
TAF AMD
KSEA 300016Z 3000/0106 20008KT 6SM -DZ BR SCT009 OVC017
      TEMPO 3000/3003 4SM -RA BR OVC008
     FM300700 18006KT P6SM VCSH BKN020 OVC040
     FM301700 VRB04KT P6SM VCSH SCT025 BKN040=



000
FTUS46 KSEW 300000 AAA
TAFPAE
TAF AMD
KPAE 300015Z 3000/3024 23007KT 5SM -RA BR SCT005 BKN011 OVC021
      TEMPO 3000/3003 1SM -RA BR OVC005
     FM300400 30006KT P6SM -SHRA BKN015 OVC030
     FM301700 VRB04KT P6SM VCSH SCT020 BKN040=



000
FTUS46 KSEW 292300
TAFHQM
TAF
KHQM 292320Z 3000/3024 27014KT P6SM SCT015 BKN040
      TEMPO 3000/3003 5SM -SHRA BR BKN015 OVC040
     FM300400 27007KT P6SM VCSH BKN020 OVC040
     FM301700 30006KT P6SM VCSH SCT025 BKN040=



000
FTUS46 KSEW 292300
TAFSEA
TAF
KSEA 292320Z 3000/0106 22012KT P6SM SCT020 BKN040
      TEMPO 3000/3003 5SM -RA BR OVC020
     FM300700 18006KT P6SM VCSH BKN020 OVC040
     FM301700 VRB04KT P6SM VCSH SCT025 BKN040=



000
FTUS46 KSEW 292300
TAFBFI
TAF
KBFI 292320Z 3000/3024 18010KT P6SM SCT020 BKN040
      TEMPO 3000/3003 5SM -RA BR OVC020
     FM300700 18006KT P6SM VCSH BKN020 OVC040
     FM301700 VRB04KT P6SM VCSH SCT025 BKN040=



000
FTUS46 KSEW 292300
TAFBLI
TAF
KBLI 292320Z 3000/3024 20012G18KT P6SM SCT020 BKN035
      TEMPO 3000/3003 5SM -RA BR BKN020 OVC030
     FM300700 18006KT P6SM VCSH BKN020 OVC040
     FM301700 VRB04KT P6SM VCSH SCT025 BKN040=



000
FTUS46 KSEW 292300
TAFCLM
TAF
KCLM 292320Z 3000/3024 27014KT P6SM VCSH SCT020 BKN040
      TEMPO 3000/3003 5SM -SHRA BR BKN020 OVC040
     FM300700 27007KT P6SM BKN020 OVC040
     FM301700 27007KT P6SM SCT025 BKN040=



000
FTUS46 KSEW 292300
TAFPAE
TAF
KPAE 292320Z 3000/3024 22012KT P6SM SCT012 OVC030
      TEMPO 3000/3003 5SM -RA BR OVC012
     FM300400 30006KT P6SM -SHRA BKN015 OVC030
     FM301700 VRB04KT P6SM VCSH SCT020 BKN040=



000
FTUS46 KSEW 292300
TAFOLM
TAF
KOLM 292320Z 3000/3024 22010KT P6SM SCT012 BKN030
      TEMPO 3000/3003 4SM -SHRA BR BKN012 OVC030
     FM300700 18006KT P6SM VCSH BKN020 OVC040
     FM301700 22006KT P6SM VCSH SCT025 BKN040=



000
FTUS46 KSEW 292200 AAB
TAFBLI
TAF AMD
KBLI 292227Z 2922/3018 18012KT P6SM -RA SCT005 OVC035
      TEMPO 2922/2924 4SM -RA BR BKN005 OVC030
     FM300000 22012KT P6SM VCSH SCT020 BKN040
     FM300700 18006KT P6SM VCSH BKN020 OVC040
     FM301700 VRB04KT P6SM VCSH SCT025 BKN040=



000
FTUS46 KSEW 292200 AAA
TAFOLM
TAF AMD
KOLM 292210Z 2922/3018 18010KT P6SM SCT010 BKN015 OVC030
      TEMPO 2922/2924 4SM -RA BKN010 OVC015
     FM300000 22010KT P6SM VCSH SCT020 BKN040
     FM300700 18006KT P6SM VCSH BKN020 OVC040
     FM301700 22006KT P6SM VCSH SCT025 BKN040=



000
FTUS46 KSEW 292200 AAA
TAFBFI
TAF AMD
KBFI 292209Z 2922/3018 18010KT P6SM SCT020 BKN040
      TEMPO 2922/3001 5SM -RA BR BKN018 OVC025
     FM300700 18006KT P6SM VCSH BKN020 OVC040
     FM301700 VRB04KT P6SM VCSH SCT025 BKN040=



000
FTUS46 KSEW 292200 AAA
TAFSEA
TAF AMD
KSEA 292208Z 2922/3024 22012KT P6SM SCT020 BKN040
      TEMPO 2922/3001 5SM -RA BR BKN018 OVC025
     FM300700 18006KT P6SM VCSH BKN020 OVC040
     FM301700 VRB04KT P6SM VCSH SCT025 BKN040=



000
FTUS46 KSEW 292200 AAA
TAFCLM
TAF AMD
KCLM 292202Z 2922/3018 VRB04KT P6SM SCT015 OVC030
      TEMPO 2922/2924 3SM -RA BKN012 OVC030
     FM300000 27012KT P6SM VCSH SCT020 BKN040
     FM300700 27007KT P6SM BKN020 OVC040
     FM301700 27007KT P6SM SCT025 BKN040=



000
FTUS46 KSEW 292100 AAA
TAFHQM
TAF AMD
KHQM 292114Z 2921/3018 31012KT P6SM SCT010 OVC035
      TEMPO 2921/2922 2SM -RA BKN010 OVC025
     FM292200 31010KT P6SM VCSH SCT020 BKN040
     FM300400 27007KT P6SM VCSH BKN020 OVC040
     FM301700 30006KT P6SM VCSH SCT025 BKN040=



000
FTUS46 KSEW 291800 AAA
TAFBLI
TAF AMD
KBLI 291821Z 2918/3018 18012KT 3SM -RA BR SCT003 BKN015 OVC040
      TEMPO 2918/2920 1SM -RA BKN003 OVC010
     FM292000 18012KT P6SM -RA SCT005 BKN015 OVC030
     FM292200 22012KT P6SM VCSH SCT020 BKN040
     FM300700 18006KT P6SM VCSH BKN020 OVC040
     FM301700 VRB04KT P6SM VCSH SCT025 BKN040=



000
FTUS46 KSEW 291700
TAFOLM
TAF
KOLM 291720Z 2918/3018 18010KT P6SM SCT020 OVC040
      TEMPO 2918/2921 5SM -RA BKN020 OVC040
     FM292100 22010KT P6SM VCSH SCT020 BKN040
     FM300700 18006KT P6SM VCSH BKN020 OVC040
     FM301700 22006KT P6SM VCSH SCT025 BKN040=



000
FTUS46 KSEW 291700
TAFPAE
TAF
KPAE 291720Z 2918/3018 17010KT 5SM BR SCT005 OVC015
      TEMPO 2918/2920 3SM -RA BR BKN005 OVC015
     FM292000 18012KT P6SM -RA BKN015 OVC030
     FM292200 22012KT P6SM -SHRA BKN020 OVC040
     FM300400 30006KT P6SM -SHRA BKN015 OVC030
     FM301700 VRB04KT P6SM VCSH SCT020 BKN040=



000
FTUS46 KSEW 291700
TAFBFI
TAF
KBFI 291720Z 2918/3018 16010KT P6SM -RA BKN015 OVC040
     FM292200 22012KT P6SM VCSH SCT020 BKN040
     FM300700 18006KT P6SM VCSH BKN020 OVC040
     FM301700 VRB04KT P6SM VCSH SCT025 BKN040=



000
FTUS46 KSEW 291700
TAFBLI
TAF
KBLI 291720Z 2918/3018 18012KT P6SM SCT005 OVC015
      TEMPO 2918/2920 5SM -RA BKN005 OVC015
     FM292000 18012KT P6SM -RA BKN015 OVC030
     FM292200 22012KT P6SM VCSH SCT020 BKN040
     FM300700 18006KT P6SM VCSH BKN020 OVC040
     FM301700 VRB04KT P6SM VCSH SCT025 BKN040=



000
FTUS46 KSEW 291700
TAFCLM
TAF
KCLM 291720Z 2918/3018 VRB04KT P6SM SCT025 OVC050
      TEMPO 2918/2921 5SM -RA BKN025 OVC040
     FM292100 27012KT P6SM VCSH SCT020 BKN040
     FM300700 27007KT P6SM BKN020 OVC040
     FM301700 27007KT P6SM SCT025 BKN040=



000
FTUS46 KSEW 291700
TAFHQM
TAF
KHQM 291720Z 2918/3018 18012KT P6SM SCT010 OVC025
      TEMPO 2918/2920 4SM -RA BKN010 OVC025
     FM292000 27010KT P6SM VCSH SCT020 BKN040
     FM300400 27007KT P6SM VCSH BKN020 OVC040
     FM301700 30006KT P6SM VCSH SCT025 BKN040=



000
FTUS46 KSEW 291700
TAFSEA
TAF
KSEA 291720Z 2918/3024 18012KT P6SM -RA BKN015 OVC040
     FM292200 22012KT P6SM VCSH SCT020 BKN040
     FM300700 18006KT P6SM VCSH BKN020 OVC040
     FM301700 VRB04KT P6SM VCSH SCT025 BKN040=



000
FTUS46 KSEW 291600 AAB
TAFSEA
TAF AMD
KSEA 291609Z 2916/3018 18008KT P6SM SCT005 BKN012 OVC040
      TEMPO 2916/2918 3SM -RA BR BKN005 OVC010
     FM291800 19014KT P6SM -RA OVC015
     FM292100 22012G20KT P6SM VCSH BKN030
     FM300000 22010KT P6SM VCSH BKN040
     FM300800 19008KT P6SM OVC020=



000
FTUS46 KSEW 291500 AAA
TAFPAE
TAF AMD
KPAE 291503Z 2915/3012 16006KT 1/2SM FG VV002
     FM291700 17009KT 3SM BR BKN003 OVC012
     FM291800 19013G20KT 5SM -RA BR OVC012
     FM292100 19013G20KT P6SM -SHRA BKN022 BKN050
     FM300000 25007KT P6SM -SHRA OVC028
     FM300200 VRB05KT 5SM SHRA SCT008 OVC015
     FM300900 17008KT P6SM -SHRA OVC020=



000
FTUS46 KSEW 291500 AAB
TAFBFI
TAF AMD
KBFI 291502Z 2915/3012 17007KT 3SM BR OVC007
     FM291800 18012KT 6SM -RA BR OVC020
     FM292100 20012KT P6SM -SHRA BKN030 OVC050
     FM300000 18008KT P6SM VCSH SCT035 BKN050
     FM300600 15006KT P6SM BKN030 BKN050=



000
FTUS46 KSEW 291200 AAA
TAFBFI
TAF AMD
KBFI 291207Z 2912/3012 14006KT 1/2SM FG VV004
      TEMPO 2912/2915 4SM BR BKN006 OVC010
     FM291500 16006KT P6SM FEW006 OVC013
      TEMPO 2915/2917 4SM BR BKN006 OVC013
     FM291800 18012KT 6SM -RA BR OVC020
     FM292100 20012KT P6SM -SHRA BKN030 OVC050
     FM300000 18008KT P6SM SCT035 BKN050 PROB30 3000/3006 -SHRA
     FM300600 15006KT P6SM BKN030 BKN050=



000
FTUS46 KSEW 291200 AAA
TAFSEA
TAF AMD
KSEA 291206Z 2912/3018 17003KT 1/4SM FG VV001
      TEMPO 2913/2915 4SM BR SCT002
     FM291500 19007KT P6SM FEW002 OVC009
      TEMPO 2915/2917 1SM BR BKN002 OVC009
     FM291800 21013G20KT 6SM -RA BR OVC015
     FM292100 21013G20KT P6SM -SHRA BKN025 BKN050
     FM300000 21011KT P6SM SCT030 BKN050 PROB30 3000/3006 -SHRA
     FM300600 19008KT P6SM BKN025 BKN050
     FM301200 19006KT P6SM OVC018=



000
FTUS46 KSEW 291100
TAFCLM
TAF
KCLM 291121Z 2912/3012 25005KT P6SM VCFG SCT009 SCT100
      TEMPO 2912/2915 BKN009 BKN100
     FM291500 25005KT 5SM -RA BR OVC015
     FM291800 32006KT P6SM -SHRA BKN022 OVC050
     FM292100 29009KT P6SM VCSH SCT028 BKN050
     FM300200 27013KT P6SM SCT050
     FM300900 27008KT P6SM BKN018 BKN050=



000
FTUS46 KSEW 291100
TAFHQM
TAF
KHQM 291121Z 2912/3012 VRB03KT P6SM OVC015
      TEMPO 2913/2915 -RA
     FM291500 19008KT 4SM -RA BR SCT007 OVC012
     FM291800 21013G22KT 6SM SHRA OVC022
     FM292100 23013G22KT P6SM -SHRA BKN030 OVC050
     FM300000 25009KT P6SM BKN030 BKN050 PROB30 3000/3006 -SHRA
     FM300600 25007KT P6SM VCSH OVC020=



000
FTUS46 KSEW 291100
TAFSEA
TAF
KSEA 291121Z 2912/3018 15004KT 1SM BR VV002
     FM291500 19007KT P6SM OVC009
     FM291800 21013G20KT 6SM -RA BR OVC015
     FM292100 21013G20KT P6SM -SHRA BKN025 BKN050
     FM300000 21011KT P6SM SCT030 BKN050 PROB30 3000/3006 -SHRA
     FM300600 19008KT P6SM BKN025 BKN050
     FM301200 19006KT P6SM OVC018=



000
FTUS46 KSEW 291100
TAFPAE
TAF
KPAE 291121Z 2912/3012 VRB03KT 3/4SM BR VV001
     FM291500 17009KT 5SM BR OVC007
     FM291800 19013G20KT 5SM -RA BR OVC012
     FM292100 19013G20KT P6SM -SHRA BKN022 BKN050
     FM300000 25007KT P6SM -SHRA OVC028
     FM300200 VRB05KT 5SM SHRA SCT008 OVC015
     FM300900 17008KT P6SM -SHRA OVC020=



000
FTUS46 KSEW 291100
TAFBFI
TAF
KBFI 291121Z 2912/3012 VRB03KT 4SM BR OVC005
     FM291500 16006KT P6SM OVC013
     FM291800 18012KT 6SM -RA BR OVC020
     FM292100 20012KT P6SM -SHRA BKN030 OVC050
     FM300000 18008KT P6SM SCT035 BKN050 PROB30 3000/3006 -SHRA
     FM300600 15006KT P6SM BKN030 BKN050=



000
FTUS46 KSEW 291100
TAFOLM
TAF
KOLM 291121Z 2912/3012 VRB03KT 5SM BR OVC005
      TEMPO 2912/2914 1SM BR VV002
     FM291500 20008KT 4SM -RA BR OVC010
     FM292000 23013KT P6SM -SHRA BKN025 BKN050
     FM300000 23009KT P6SM SCT030 SCT050
     FM300900 20005KT 5SM BR OVC015=



000
FTUS46 KSEW 291100
TAFBLI
TAF
KBLI 291121Z 2912/3012 17008KT 6SM BR SCT005 SCT100
      TEMPO 2912/2915 BKN005 BKN100
     FM291500 17012KT P6SM VCSH OVC010
     FM291800 17013G22KT 6SM -RA BR OVC015
     FM292100 19013KT P6SM -SHRA BKN025 OVC050
     FM300000 17010KT P6SM SCT030 BKN050 PROB30 3000/3006 -SHRA
     FM300600 17007KT P6SM BKN025 BKN050=



000
FTUS46 KSEW 291000 AAB
TAFPAE
TAF AMD
KPAE 291024Z 2910/3006 VRB03KT 2SM BR VV002
      TEMPO 2910/2913 1/2SM FG VV001
     FM291500 17010KT 5SM BR OVC007
     FM291800 19013G20KT 5SM -RA BR OVC012
     FM292100 21013G20KT P6SM -SHRA BKN022 OVC050
     FM300000 25007KT P6SM -SHRA OVC028
     FM300200 VRB05KT 5SM SHRA SCT008 OVC020=



000
FTUS46 KSEW 290900 AAA
TAFCLM
TAF AMD
KCLM 290924Z 2909/3006 VRB03KT P6SM VCFG SCT010
      TEMPO 2909/2911 BKN010
     FM291100 VRB03KT P6SM OVC010
     FM291500 VRB03KT 5SM -RA BR OVC015
     FM291800 32006KT P6SM -SHRA BKN022 OVC050
     FM292100 29009KT P6SM VCSH SCT028 BKN050
     FM300200 27013KT P6SM SCT050=



000
FTUS46 KSEW 290900 AAA
TAFBFI
TAF AMD
KBFI 290923Z 2909/3006 VRB03KT P6SM VCFG SCT008
     FM291000 VRB03KT 5SM BR OVC008
     FM291500 16008KT P6SM OVC013
     FM291800 18012KT 6SM -RA BR OVC020
     FM292100 20012KT P6SM -SHRA BKN030 OVC050
     FM300000 18009KT P6SM SCT035 BKN050 PROB30 3000/3006 -SHRA=



000
FTUS46 KSEW 290900 AAA
TAFPAE
TAF AMD
KPAE 290922Z 2909/3006 VRB03KT 6SM BR FEW002
     FM291000 VRB03KT 2SM BR VV002
      TEMPO 2910/2913 3/4SM BR
     FM291500 17010KT 5SM BR OVC007
     FM291800 19013G20KT 5SM -RA BR OVC012
     FM292100 21013G20KT P6SM -SHRA BKN022 OVC050
     FM300000 25007KT P6SM -SHRA OVC028
     FM300200 VRB05KT 5SM SHRA SCT008 OVC020=



000
FTUS46 KSEW 290900 AAA
TAFSEA
TAF AMD
KSEA 290921Z 2909/3012 VRB03KT 6SM BR SCT004
      TEMPO 2910/2912 2SM BR BKN004
     FM291200 17005KT 4SM BR OVC006
     FM291500 19009KT P6SM OVC009
     FM291800 19013G20KT 6SM -RA BR OVC015
     FM292100 22013G20KT P6SM -SHRA BKN025 OVC050
     FM300000 22011KT P6SM SCT030 BKN050 PROB30 3000/3006 -SHRA
     FM300600 19008KT P6SM BKN025 BKN050=



000
FTUS46 KSEW 290800 AAB
TAFOLM
TAF AMD
KOLM 290858Z 2909/3006 00000KT 2SM BR VV003
      TEMPO 2909/2911 1/4SM FG VV001
     FM291100 VRB03KT 6SM BR OVC006
     FM291500 20008KT 4SM -RA BR OVC012
     FM292000 23013KT P6SM -SHRA BKN025 BKN050
     FM300000 23009KT P6SM SCT028 SCT050=



000
FTUS46 KSEW 290800 AAB
TAFBLI
TAF AMD
KBLI 290857Z 2909/3006 15006KT P6SM VCFG SCT004
      TEMPO 2909/2912 5SM BR BKN004
     FM291200 17008KT P6SM OVC009
     FM291500 17012KT P6SM VCSH OVC015
     FM291800 17013G22KT 6SM -RA BR OVC015
     FM292100 19013KT P6SM -SHRA BKN025 OVC050
     FM300000 17010KT P6SM SCT030 BKN050 PROB30 3000/3006 -SHRA=



000
FTUS46 KSEW 290800 AAB
TAFHQM
TAF AMD
KHQM 290826Z 2908/3006 VRB03KT P6SM OVC012
     FM291200 19008KT 4SM -RA BR SCT007 OVC012
     FM291800 21013G22KT 6SM SHRA OVC022
     FM292100 23013G22KT P6SM -SHRA BKN030 OVC050
     FM300000 25009KT P6SM BKN030 BKN050 PROB30 3000/3006 -SHRA=



000
FTUS46 KSEW 290800 AAA
TAFBLI
TAF AMD
KBLI 290800Z 2908/3006 17006KT 4SM BR OVC004
     FM291200 17008KT P6SM OVC009
     FM291500 17012KT P6SM VCSH OVC015
     FM291800 17013G22KT 6SM -RA BR OVC015
     FM292100 19013KT P6SM -SHRA BKN025 OVC050
     FM300000 17010KT P6SM SCT030 BKN050 PROB30 3000/3006 -SHRA=



000
FTUS46 KSEW 290600 AAA
TAFOLM
TAF AMD
KOLM 290654Z 2907/3006 00000KT 4SM BR SCT003
      TEMPO 2907/2910 3/4SM BR VV001
     FM291000 VRB03KT 6SM BR OVC006
     FM291500 20008KT 4SM -RA BR OVC012
     FM292000 23013KT P6SM -SHRA BKN025 BKN050
     FM300000 23009KT P6SM SCT028 SCT050=



000
FTUS46 KSEW 290600 AAA
TAFHQM
TAF AMD
KHQM 290636Z 2907/3006 VRB03KT 4SM BR VV003
      TEMPO 2907/2909 1SM BR
     FM290900 21005KT 6SM BR OVC007
     FM291200 19008KT 4SM -RA BR SCT007 OVC012
     FM291800 21013G22KT 6SM SHRA OVC022
     FM292100 23013G22KT P6SM -SHRA BKN030 OVC050
     FM300000 25009KT P6SM BKN030 BKN050 PROB30 3000/3006 -SHRA=



000
FTUS46 KSEW 290500 RRA
TAFBFI
TAF
KBFI 290541Z 2906/3006 00000KT P6SM VCFG SKC
     FM290900 VRB03KT 5SM BR OVC008
     FM291500 16008KT P6SM OVC013
     FM291800 18012KT 6SM -RA BR OVC020
     FM292100 20012KT P6SM -SHRA BKN030 OVC050
     FM300000 18009KT P6SM SCT035 BKN050 PROB30 3000/3006 -SHRA=



000
FTUS46 KSEW 290500 RRA
TAFPAE
TAF
KPAE 290541Z 2906/3006 00000KT 6SM BR SKC
     FM290900 VRB03KT 3/4SM BR VV002
     FM291500 17010KT 5SM BR OVC007
     FM291800 19013G20KT 5SM -RA BR OVC012
     FM292100 21013G20KT P6SM -SHRA BKN022 OVC050
     FM300000 25007KT P6SM -SHRA OVC028
     FM300200 VRB05KT 5SM SHRA SCT008 OVC020=



000
FTUS46 KSEW 290500 RRA
TAFHQM
TAF
KHQM 290541Z 2906/3006 VRB03KT 1SM BR VV003
      TEMPO 2906/2909 1/2SM FG VV001
     FM290900 21005KT 4SM BR OVC007
     FM291200 19008KT 4SM -RA BR SCT007 OVC012
     FM291800 21013G22KT 6SM SHRA OVC022
     FM292100 23013G22KT P6SM -SHRA BKN030 OVC050
     FM300000 25009KT P6SM BKN030 BKN050 PROB30 3000/3006 -SHRA=



000
FTUS46 KSEW 290500 RRA
TAFBLI
TAF
KBLI 290541Z 2906/3006 VRB03KT 6SM BR SKC
     FM290900 17005KT P6SM VCFG SCT100
     FM291200 17008KT P6SM OVC009
     FM291500 17012KT P6SM VCSH OVC015
     FM291800 17013G22KT 6SM -RA BR OVC015
     FM292100 19013KT P6SM -SHRA BKN025 OVC050
     FM300000 17010KT P6SM SCT030 BKN050 PROB30 3000/3006 -SHRA=



000
FTUS46 KSEW 290500 RRA
TAFCLM
TAF
KCLM 290541Z 2906/3006 VRB03KT P6SM VCFG FEW100
     FM290900 VRB03KT P6SM VCFG BKN006 BKN100
     FM291200 VRB03KT P6SM BKN010 OVC100
     FM291500 VRB03KT 5SM -RA BR OVC015
     FM291800 32006KT P6SM -SHRA BKN022 OVC050
     FM292100 29009KT P6SM VCSH SCT028 BKN050
     FM300200 27013KT P6SM SCT050=



000
FTUS46 KSEW 290500 RRA
TAFSEA
TAF
KSEA 290541Z 2906/3012 VRB03KT P6SM VCFG SKC
     FM290900 VRB03KT 2SM BR OVC004
     FM291500 19009KT P6SM OVC009
     FM291800 19013G20KT 6SM -RA BR OVC015
     FM292100 22013G20KT P6SM -SHRA BKN025 OVC050
     FM300000 22011KT P6SM SCT030 BKN050 PROB30 3000/3006 -SHRA
     FM300600 19008KT P6SM BKN025 BKN050=



000
FTUS46 KSEW 290500 RRA
TAFOLM
TAF
KOLM 290541Z 2906/3006 00000KT 3/4SM BR VV003
      TEMPO 2906/2910 1/4SM FG VV001
     FM291000 VRB03KT 2SM BR OVC006
     FM291500 20008KT 4SM -RA BR OVC012
     FM292000 23013KT P6SM -SHRA BKN025 BKN050
     FM300000 23009KT P6SM SCT028 SCT050=



000
FTUS46 KSEW 290300 AAC
TAFHQM
TAF AMD
KHQM 290335Z 2904/2924 VRB03KT 6SM BR OVC004
     FM290600 19004KT 4SM BR OVC006
     FM291600 20008KT 4SM -SHRA OVC012=



000
FTUS46 KSEW 290300 AAB
TAFHQM
TAF AMD
KHQM 290305Z 2903/2924 26006KT 6SM BR OVC006
     FM290600 19004KT 4SM BR OVC006
     FM291600 20008KT 4SM -SHRA OVC012=



000
FTUS46 KSEW 290300 AAA
TAFCLM
TAF AMD
KCLM 290304Z 2903/2924 29005KT P6SM VCFG SKC
     FM291200 27006KT P6SM BKN010
     FM291800 27007KT P6SM -SHRA OVC020=



000
FTUS46 KSEW 290300 AAA
TAFOLM
TAF AMD
KOLM 290304Z 2903/2924 00000KT P6SM SKC
     FM290600 00000KT 5SM BR SKC
     FM290900 VRB03KT 2SM BR OVC008
     FM291200 00000KT 1/2SM FG OVC001
     FM291800 18006KT P6SM -SHRA OVC020=



000
FTUS46 KSEW 290300 AAA
TAFBLI
TAF AMD
KBLI 290303Z 2903/2924 00000KT 6SM BR SKC
      TEMPO 2903/2906 2SM BR
     FM290600 VRB03KT 2SM BR SCT004
     FM291000 16006KT 1/2SM FG OVC001
     FM291600 18007KT P6SM OVC012
     FM292000 20007KT P6SM -SHRA OVC020=



000
FTUS46 KSEW 290300 AAA
TAFPAE
TAF AMD
KPAE 290302Z 2903/2924 00000KT P6SM SKC
     FM290600 18004KT 4SM BR SCT200
     FM290900 18006KT 6SM BR BKN012
     FM291200 18006KT P6SM OVC006
      TEMPO 2912/2916 1/2SM FG BKN002
     FM292000 22010KT P6SM -SHRA OVC020=



000
FTUS46 KSEW 290300 AAA
TAFBFI
TAF AMD
KBFI 290301Z 2903/2924 VRB03KT P6SM SCT200
     FM290900 18006KT P6SM BKN017
     FM291200 18006KT P6SM OVC012
     FM292000 22010KT P6SM -SHRA OVC020=



000
FTUS46 KSEW 290300 AAA
TAFSEA
TAF AMD
KSEA 290301Z 2903/3006 VRB03KT P6SM SCT200
     FM290500 23004KT P6SM SCT200
     FM290900 18006KT P6SM BKN012
     FM291200 18006KT P6SM OVC008
     FM292000 22010KT P6SM -SHRA OVC020=



000
FTUS46 KSEW 290200 AAA
TAFHQM
TAF AMD
KHQM 290219Z 2902/2924 23006KT 6SM BR SCT006
      TEMPO 2902/2904 BKN006
     FM290400 19004KT 4SM BR OVC006
     FM291600 20008KT 4SM -SHRA OVC012=



000
FTUS46 KSEW 282300
TAFHQM
TAF
KHQM 282327Z 2900/2924 24011KT P6SM SCT015 SCT200
      TEMPO 2900/2904 BKN015
     FM290400 19004KT P6SM OVC008
     FM291600 20008KT 4SM -SHRA OVC012=



000
FTUS46 KSEW 282300
TAFPAE
TAF
KPAE 282327Z 2900/2924 03004KT P6SM SCT200
     FM290500 18004KT P6SM SCT200
     FM290900 18006KT P6SM BKN012
     FM291200 18006KT P6SM OVC006
      TEMPO 2912/2916 1/2SM FG BKN002
     FM292000 22010KT P6SM -SHRA OVC020=



000
FTUS46 KSEW 282300
TAFBLI
TAF
KBLI 282327Z 2900/2924 19006KT P6SM SCT200
      TEMPO 2906/2910 1SM BR SCT001
     FM291000 16006KT 1/2SM FG OVC001
     FM291600 18007KT P6SM OVC012
     FM292000 20007KT P6SM -SHRA OVC020=



000
FTUS46 KSEW 282300
TAFSEA
TAF
KSEA 282327Z 2900/3006 32006KT P6SM SCT200
     FM290500 23004KT P6SM SCT200
     FM290900 18006KT P6SM BKN012
     FM291200 18006KT P6SM OVC008
     FM292000 22010KT P6SM -SHRA OVC020=



000
FTUS46 KSEW 282300
TAFBFI
TAF
KBFI 282327Z 2900/2924 32006KT P6SM SCT200
     FM290500 23004KT P6SM SCT200
     FM290900 18006KT P6SM BKN017
     FM291200 18006KT P6SM OVC012
     FM292000 22010KT P6SM -SHRA OVC020=



000
FTUS46 KSEW 282300
TAFCLM
TAF
KCLM 282327Z 2900/2924 VRB04KT P6SM SCT200
     FM290100 27008KT P6SM SCT200
     FM291200 27006KT P6SM BKN010
     FM291800 27007KT P6SM -SHRA OVC020=



000
FTUS46 KSEW 282300
TAFOLM
TAF
KOLM 282327Z 2900/2924 02005KT P6SM SCT200
     FM290600 18003KT P6SM SCT200
     FM290900 VRB03KT 6SM BR OVC008
     FM291200 00000KT 1/2SM FG OVC001
     FM291800 18006KT P6SM -SHRA OVC020=



000
FTUS46 KSEW 282000 AAA
TAFPAE
TAF AMD
KPAE 282004Z 2820/2918 VRB03KT P6SM BKN010
      TEMPO 2820/2822 2SM BR OVC003
     FM282200 32005KT P6SM SCT015 SCT200
     FM282300 32005KT P6SM FEW025 SCT200
     FM290100 VRB03KT P6SM SCT200
     FM290800 15004KT P6SM OVC007=



000
FTUS46 KSEW 282000 AAA
TAFBFI
TAF AMD
KBFI 282002Z 2820/2918 31005KT P6SM SCT020 BKN200
      TEMPO 2820/2821 BKN013
     FM282200 32006KT P6SM FEW025 SCT200
     FM290500 23004KT P6SM SCT200
     FM290900 20006KT P6SM OVC009
     FM291500 18008KT P6SM OVC015=



000
FTUS46 KSEW 282000 AAA
TAFSEA
TAF AMD
KSEA 282001Z 2820/2924 32005KT P6SM SCT015 BKN200
      TEMPO 2820/2821 BKN010
     FM282200 32006KT P6SM FEW025 SCT200
     FM290500 23004KT P6SM SCT200
     FM290900 20006KT P6SM OVC009
     FM291500 18008KT P6SM OVC015
     FM292100 22010KT P6SM -SHRA OVC020=



000
FTUS46 KSEW 281900 AAA
TAFBLI
TAF AMD
KBLI 281900Z 2819/2918 VRB05KT P6SM SCT010
     FM282000 22006KT P6SM SCT025 SCT200
     FM290000 22006KT P6SM SCT200
     FM291000 16006KT P6SM BKN011 OVC130=



000
FTUS46 KSEW 281700
TAFPAE
TAF
KPAE 281728Z 2818/2918 VRB03KT 2SM BR OVC006
      TEMPO 2818/2820 1/4SM FG VV001
     FM282000 32005KT P6SM SCT020 SCT200
     FM290100 VRB03KT P6SM SCT200
     FM290800 15004KT P6SM OVC007=



000
FTUS46 KSEW 281700
TAFSEA
TAF
KSEA 281728Z 2818/2924 02005KT P6SM BKN020 BKN200
      TEMPO 2818/2820 BKN010
     FM282000 32006KT P6SM SCT025 SCT200
     FM290500 23004KT P6SM SCT200
     FM290900 20006KT P6SM OVC009
     FM291500 18008KT P6SM OVC015
     FM292100 22010KT P6SM -SHRA OVC020=



000
FTUS46 KSEW 281700
TAFBFI
TAF
KBFI 281728Z 2818/2918 31005KT P6SM BKN020 BKN200
      TEMPO 2818/2820 BKN010
     FM282000 32006KT P6SM SCT025 SCT200
     FM290500 23004KT P6SM SCT200
     FM290900 20006KT P6SM OVC009
     FM291500 18008KT P6SM OVC015=



000
FTUS46 KSEW 281700
TAFHQM
TAF
KHQM 281728Z 2818/2918 07008KT P6SM SCT200
     FM281900 24011KT P6SM SCT200
     FM290200 24006KT P6SM FEW012 BKN200
     FM290500 19004KT P6SM OVC008
     FM291500 20008KT 4SM -SHRA OVC012=



000
FTUS46 KSEW 281700
TAFCLM
TAF
KCLM 281728Z 2818/2918 VRB04KT P6SM SCT200
     FM290100 27008KT P6SM SCT200
     FM290900 27006KT P6SM BKN010 OVC120=



000
FTUS46 KSEW 281700
TAFOLM
TAF
KOLM 281728Z 2818/2918 02005KT P6SM BKN010 BKN015
      TEMPO 2818/2820 4SM BR
     FM282000 02004KT P6SM SCT025 SCT200
     FM290100 VRB03KT P6SM SCT200
     FM290600 VRB03KT 4SM BR BKN005 BKN200
     FM290900 VRB03KT 6SM BR OVC008=



000
FTUS46 KSEW 281700
TAFBLI
TAF
KBLI 281728Z 2818/2918 00000KT 2SM BR OVC003
      TEMPO 2818/2820 1/2SM FG VV001
     FM282000 22006KT P6SM SCT025 SCT200
     FM290000 22006KT P6SM SCT200
     FM291000 16006KT P6SM BKN011 OVC130=



000
FTUS46 KSEW 281600 AAA
TAFBLI
TAF AMD
KBLI 281608Z 2816/2912 00000KT 2SM BR OVC003
      TEMPO 2816/2818 1/2SM FG VV001
     FM281800 VRB03KT P6SM BKN009 BKN200
     FM281900 22006KT P6SM SCT200
     FM290000 VRB03KT P6SM BKN200
     FM291000 16006KT P6SM BKN011 OVC130=



000
FTUS46 KSEW 281600 AAA
TAFPAE
TAF AMD
KPAE 281607Z 2816/2912 VRB03KT 2SM BR OVC006
      TEMPO 2816/2818 1/4SM FG VV001
     FM281800 32005KT P6SM BKN012 BKN200
     FM281900 32005KT P6SM SCT200
     FM290100 VRB03KT P6SM BKN200
     FM290800 15004KT P6SM OVC007=



000
FTUS46 KSEW 281500 AAA
TAFCLM
TAF AMD
KCLM 281504Z 2815/2912 VRB03KT P6SM SCT200
     FM290100 27006KT P6SM BKN200
     FM290900 27006KT P6SM BKN010 OVC130=



000
FTUS46 KSEW 281500 AAA
TAFSEA
TAF AMD
KSEA 281503Z 2815/2918 02005KT P6SM SCT004 BKN010
      TEMPO 2815/2818 BKN004
     FM281900 32006KT P6SM SCT020 SCT200
     FM282000 32006KT P6SM SCT200
     FM290200 23004KT P6SM BKN200
     FM290900 20006KT P6SM OVC009
     FM291500 20008KT P6SM OVC015=



000
FTUS46 KSEW 281100
TAFCLM
TAF
KCLM 281138Z 2812/2912 VRB03KT P6SM VCFG FEW003 BKN200
     FM281400 VRB03KT 2SM BR VV003
     FM281700 VRB03KT P6SM BKN007 BKN200
     FM281800 VRB03KT P6SM SCT200
     FM290100 27006KT P6SM BKN200
     FM290900 27006KT P6SM BKN010 OVC130=



000
FTUS46 KSEW 281100
TAFPAE
TAF
KPAE 281138Z 2812/2912 VRB03KT 5SM BR OVC012
      TEMPO 2812/2816 3/4SM BR VV001
     FM281800 32005KT P6SM BKN012 BKN200
     FM281900 32005KT P6SM SCT200
     FM290100 VRB03KT P6SM BKN200
     FM290800 15004KT P6SM OVC007=



000
FTUS46 KSEW 281100
TAFOLM
TAF
KOLM 281138Z 2812/2912 00000KT 4SM BR SCT005 SCT200
      TEMPO 2812/2816 1/2SM FG VV002
     FM281800 02005KT P6SM SCT200
     FM290100 VRB03KT P6SM BKN200
     FM290600 VRB03KT 4SM BR BKN005 BKN200
     FM290900 VRB03KT 6SM BR OVC008=



000
FTUS46 KSEW 281100
TAFBFI
TAF
KBFI 281138Z 2812/2912 VRB03KT P6SM OVC022
     FM281900 30006KT P6SM SCT200
     FM290100 VRB03KT P6SM BKN200
     FM290900 17004KT P6SM OVC013=



000
FTUS46 KSEW 281100
TAFSEA
TAF
KSEA 281138Z 2812/2918 02008KT P6SM OVC017
     FM281900 32006KT P6SM SCT200
     FM290200 23004KT P6SM BKN200
     FM290900 20006KT P6SM OVC009
     FM291500 20008KT P6SM OVC015=



000
FTUS46 KSEW 281100
TAFHQM
TAF
KHQM 281138Z 2812/2912 VRB03KT 6SM BR SCT200
      TEMPO 2812/2816 3/4SM BR VV002
     FM281700 VRB03KT P6SM SCT200
     FM281900 24011KT P6SM SCT200
     FM290200 24006KT P6SM FEW012 BKN200
     FM290500 19004KT P6SM OVC008=



000
FTUS46 KSEW 281100
TAFBLI
TAF
KBLI 281138Z 2812/2912 00000KT 5SM BR VV005
      TEMPO 2812/2816 1SM BR VV002
     FM281800 VRB03KT P6SM BKN009 BKN200
     FM281900 22006KT P6SM SCT200
     FM290000 VRB03KT P6SM BKN200
     FM291000 16006KT P6SM BKN011 OVC130=



000
FTUS46 KSEW 281000 AAA
TAFOLM
TAF AMD
KOLM 281057Z 2811/2906 00000KT 2SM BR SCT002
      TEMPO 2811/2813 1/2SM FG VV002
     FM281300 00000KT 3/4SM BR VV002
      TEMPO 2813/2816 1/4SM FG VV001
     FM281800 02005KT P6SM OVC007
     FM282000 35005KT P6SM SCT200
     FM290200 VRB03KT P6SM SCT200=



000
FTUS46 KSEW 281000 AAB
TAFHQM
TAF AMD
KHQM 281018Z 2810/2906 VRB03KT P6SM VCFG FEW002
      TEMPO 2810/2812 5SM BR
     FM281200 VRB03KT 2SM BR VV002
      TEMPO 2812/2816 1/4SM FG VV001
     FM281800 VRB05KT P6SM OVC006
     FM282000 24011KT P6SM FEW018 SCT200
     FM290200 24008KT P6SM BKN011 BKN200=



000
FTUS46 KSEW 280900 AAC
TAFBLI
TAF AMD
KBLI 280945Z 2810/2906 00000KT 3SM BR SCT003 BKN200
      TEMPO 2810/2812 1SM BR VV003
     FM281200 00000KT 1/4SM FG VV001
     FM281800 VRB03KT P6SM BKN007
     FM281900 25006KT P6SM SCT200
     FM290000 19004KT P6SM SCT200=



000
FTUS46 KSEW 280900 AAA
TAFBFI
TAF AMD
KBFI 280922Z 2809/2906 00000KT P6SM VCFG SCT022 SCT200
      TEMPO 2809/2812 BKN022 BKN200
     FM281200 00000KT 5SM BR OVC007
     FM281800 VRB03KT P6SM OVC012
     FM282000 31005KT P6SM SCT200
     FM290200 VRB03KT P6SM SCT200=



000
FTUS46 KSEW 280900 AAA
TAFSEA
TAF AMD
KSEA 280906Z 2809/2912 02008KT P6SM VCFG SCT015 SCT200
      TEMPO 2809/2812 BKN015 BKN200
     FM281200 02006KT 2SM BR OVC003
      TEMPO 2812/2816 1/2SM FG VV001
     FM281800 34006KT P6SM OVC008
     FM282000 29006KT P6SM SCT200
     FM290800 20006KT P6SM OVC009=



000
FTUS46 KSEW 280900 AAA
TAFCLM
TAF AMD
KCLM 280905Z 2809/2906 VRB03KT P6SM VCFG BKN200
     FM281200 VRB03KT 3/4SM BR VV002
      TEMPO 2812/2816 1/4SM FG VV001
     FM281700 VRB03KT 5SM BR BKN006
     FM281800 VRB03KT P6SM SCT200
     FM290100 27006KT P6SM SCT200=



000
FTUS46 KSEW 280900 AAA
TAFPAE
TAF AMD
KPAE 280904Z 2809/2906 VRB03KT 2SM BR SCT003 BKN200
      TEMPO 2809/2812 1/2SM FG VV001
     FM281200 VRB03KT 1/4SM FG VV001
     FM281800 32005KT 6SM BR OVC006
     FM282000 32005KT P6SM SCT200
     FM290200 VRB03KT P6SM SCT200=



000
FTUS46 KSEW 280800 AAA
TAFHQM
TAF AMD
KHQM 280807Z 2808/2906 00000KT 6SM BR FEW003 SCT200
     FM281000 00000KT 3/4SM BR VV002
      TEMPO 2812/2816 1/4SM FG VV001
     FM281800 VRB05KT P6SM OVC006
     FM282000 24011KT P6SM FEW018 SCT200
     FM290200 24008KT P6SM BKN011 BKN200=



000
FTUS46 KSEW 280700 AAB
TAFBLI
TAF AMD
KBLI 280731Z 2808/2906 00000KT 1SM BR VV005
      TEMPO 2808/2812 1/4SM FG VV002
     FM281200 00000KT 1/4SM FG VV001
     FM281800 VRB03KT P6SM BKN007
     FM281900 25006KT P6SM SCT200
     FM290000 19004KT P6SM SCT200=



000
FTUS46 KSEW 280600 AAA
TAFBLI
TAF AMD
KBLI 280625Z 2806/2906 00000KT 4SM BR FEW002 BKN200
      TEMPO 2806/2809 1SM BR VV002
     FM280900 00000KT 1SM BR VV002
     FM281200 00000KT 1/4SM FG VV001
     FM281800 VRB03KT P6SM BKN007
     FM281900 25006KT P6SM SCT200
     FM290000 19004KT P6SM SCT200=



000
FTUS46 KSEW 280500
TAFSEA
TAF
KSEA 280528Z 2806/2912 02006KT P6SM OVC200
     FM280900 02006KT 6SM BR SCT005 BKN200
     FM281200 02006KT 2SM BR OVC003
      TEMPO 2812/2816 1/2SM FG VV001
     FM281800 34006KT P6SM OVC008
     FM282000 29006KT P6SM SCT200
     FM290800 20006KT P6SM OVC009=



000
FTUS46 KSEW 280500
TAFCLM
TAF
KCLM 280528Z 2806/2906 24005KT P6SM VCFG SCT200
     FM280900 VRB03KT 4SM BR SCT002 SCT200
     FM281200 VRB03KT 3/4SM BR VV002
      TEMPO 2812/2816 1/4SM FG VV001
     FM281700 VRB03KT 5SM BR BKN006
     FM281800 VRB03KT P6SM SCT200
     FM290100 27006KT P6SM SCT200=



000
FTUS46 KSEW 280500
TAFBFI
TAF
KBFI 280528Z 2806/2906 VRB03KT P6SM OVC200
     FM280900 00000KT P6SM VCFG SCT009 BKN200
     FM281200 00000KT 5SM BR OVC007
     FM281800 VRB03KT P6SM OVC012
     FM282000 31005KT P6SM SCT200
     FM290200 VRB03KT P6SM SCT200=



000
FTUS46 KSEW 280500
TAFHQM
TAF
KHQM 280528Z 2806/2906 00000KT 6SM BR FEW003 SCT200
     FM280800 00000KT 2SM BR VV003
     FM281100 00000KT 3/4SM BR VV002
      TEMPO 2812/2816 1/4SM FG VV001
     FM281800 VRB05KT P6SM OVC006
     FM282000 24011KT P6SM FEW018 SCT200
     FM290200 24008KT P6SM BKN011 BKN200=



000
FTUS46 KSEW 280500
TAFPAE
TAF
KPAE 280528Z 2806/2906 36005KT 6SM BR OVC200
     FM280900 VRB03KT 3SM BR SCT003 BKN200
      TEMPO 2810/2812 3/4SM BR BKN003 BKN200
     FM281200 VRB03KT 1/4SM FG VV001
     FM281800 32005KT 6SM BR OVC006
     FM282000 32005KT P6SM SCT200
     FM290200 VRB03KT P6SM SCT200=



000
FTUS46 KSEW 280500
TAFOLM
TAF
KOLM 280528Z 2806/2906 VRB03KT P6SM OVC200
     FM280900 00000KT 5SM BR SCT004 BKN200
     FM281200 00000KT 1SM BR VV002
      TEMPO 2812/2816 1/4SM FG VV001
     FM281800 02005KT P6SM OVC007
     FM282000 35005KT P6SM SCT200
     FM290200 VRB03KT P6SM SCT200=



000
FTUS46 KSEW 280500
TAFBLI
TAF
KBLI 280528Z 2806/2906 00000KT 6SM BR FEW003 BKN200
      TEMPO 2806/2809 2SM BR
     FM280900 00000KT 2SM BR VV002
     FM281200 00000KT 1/4SM FG VV001
     FM281800 VRB03KT P6SM BKN007
     FM281900 25006KT P6SM SCT200
     FM290000 19004KT P6SM SCT200=



000
FTUS46 KSEW 280300 AAB
TAFHQM
TAF AMD
KHQM 280322Z 2803/2824 VRB03KT 6SM BR SKC
      TEMPO 2804/2806 3SM BR
     FM280600 00000KT 2SM BR BKN005
     FM280900 00000KT 1/2SM FG VV002
     FM281900 24010KT P6SM SCT025=



000
FTUS46 KSEW 280300 AAA
TAFOLM
TAF AMD
KOLM 280321Z 2803/2824 03004KT P6SM SCT200
      TEMPO 2808/2811 2SM BR BKN003
     FM281100 00000KT 1/4SM FG VV001
     FM281900 02004KT P6SM BKN015
     FM282000 03007KT P6SM SCT020=



000
FTUS46 KSEW 280300 AAA
TAFCLM
TAF AMD
KCLM 280320Z 2803/2824 VRB04KT P6SM SKC
     FM280900 24006KT P6SM VCFG SKC
      TEMPO 2812/2816 1/2SM FG BKN001
     FM281900 VRB05KT P6SM SKC=



000
FTUS46 KSEW 280300 AAB
TAFBLI
TAF AMD
KBLI 280316Z 2803/2824 00000KT 6SM BR SKC
      TEMPO 2803/2805 4SM BR
     FM280500 00000KT 3SM BR SCT002
      TEMPO 2805/2807 3/4SM BR BKN003
     FM280700 00000KT 3/4SM BR VV002
     FM280900 00000KT 1/4SM FG VV001
     FM281800 18005KT P6SM SCT020=



000
FTUS46 KSEW 280300 AAA
TAFBFI
TAF AMD
KBFI 280313Z 2803/2824 VRB03KT P6SM BKN200
      TEMPO 2810/2812 4SM BR OVC008
     FM281200 03004KT 2SM BR OVC006
     FM281900 34007KT P6SM SCT020=



000
FTUS46 KSEW 280300 AAA
TAFPAE
TAF AMD
KPAE 280313Z 2803/2824 36005KT P6SM BKN200
      TEMPO 2809/2812 2SM BR OVC004
     FM281200 03004KT 1/2SM FG VV001
     FM281900 34007KT P6SM SCT020=



000
FTUS46 KSEW 280300 AAA
TAFSEA
TAF AMD
KSEA 280312Z 2803/2906 02006KT P6SM BKN200
      TEMPO 2810/2812 2SM BR OVC004
     FM281200 03004KT 1/2SM FG OVC001
     FM281900 34007KT P6SM SCT020=



000
FTUS46 KSEW 280100 AAA
TAFHQM
TAF AMD
KHQM 280159Z 2802/2824 31009KT P6SM SKC
     FM280600 00000KT 2SM BR BKN005
     FM280900 00000KT 1/2SM FG VV002
     FM281900 24010KT P6SM SCT025=



000
FTUS46 KSEW 280000 AAA
TAFBLI
TAF AMD
KBLI 280021Z 2800/2824 VRB04KT P6SM SCT015
     FM280300 VRB03KT P6SM SKC
     FM281200 00000KT 1/2SM FG OVC001
     FM281800 18005KT P6SM SCT020=



000
FTUS46 KSEW 272300
TAFOLM
TAF
KOLM 272320Z 2800/2824 03005KT P6SM FEW030
     FM280200 VRB03KT P6SM SKC
      TEMPO 2808/2811 2SM BR BKN003
     FM281100 00000KT 1/4SM FG VV001
     FM281900 02004KT P6SM BKN015
     FM282000 03007KT P6SM SCT020=



000
FTUS46 KSEW 272300
TAFBFI
TAF
KBFI 272320Z 2800/2824 31008KT P6SM FEW025
     FM280300 02006KT P6SM SKC
      TEMPO 2810/2812 4SM BR OVC008
     FM281200 03004KT 2SM BR OVC006
     FM281900 34007KT P6SM SCT020=



000
FTUS46 KSEW 272300
TAFCLM
TAF
KCLM 272320Z 2800/2824 VRB04KT P6SM SKC
     FM280900 24006KT P6SM VCFG SKC
      TEMPO 2812/2816 1/2SM FG BKN001
     FM281900 VRB05KT P6SM SKC
      AMD NOT SKED=



000
FTUS46 KSEW 272300
TAFHQM
TAF
KHQM 272320Z 2800/2824 25009KT P6SM SKC
     FM280200 30005KT P6SM SKC
     FM280600 00000KT 2SM BR BKN005
     FM280900 00000KT 1/2SM FG VV002
     FM281900 24010KT P6SM SCT025=



000
FTUS46 KSEW 272300
TAFPAE
TAF
KPAE 272320Z 2800/2824 36008KT P6SM SKC
     FM280300 02006KT P6SM SKC
      TEMPO 2809/2812 2SM BR OVC004
     FM281200 03004KT 1/2SM FG VV001
     FM281900 34007KT P6SM SCT020=



000
FTUS46 KSEW 272300
TAFSEA
TAF
KSEA 272320Z 2800/2906 36008KT P6SM FEW025
     FM280300 02006KT P6SM SKC
      TEMPO 2810/2812 2SM BR OVC004
     FM281200 03004KT 1/2SM FG OVC001
     FM281900 34007KT P6SM SCT020=



000
FTUS46 KSEW 272300
TAFBLI
TAF
KBLI 272320Z 2800/2824 VRB04KT P6SM BKN015
     FM280300 VRB03KT P6SM SKC
     FM281200 00000KT 1/2SM FG OVC001
     FM281800 18005KT P6SM SCT020=



    US Dept of Commerce
    National Oceanic and Atmospheric Administration
    National Weather Service
    1325 East West Highway
    Silver Spring, MD 20910
    Page Author: NWS Internet Services Team
Disclaimer
Information Quality
Credits
Glossary
Privacy Policy
Freedom of Information Act (FOIA)
About Us
Career Opportunities